Latest Weather Observations for Mount Moornapa

IDV60801

Issued at 9:31 pm EST Tuesday 31 May 2016 (issued every 30 minutes, with the page automatically refreshed every 10 minutes)

About weather observations | Map of weather stations | Latest weather observations for VIC | Other Formats
Station Details ID: 085296 Name: MOUNT MOORNAPA Lat: -37.75 Lon: 147.14 Height: 480.0 m
Data from the previous 72 hours. | See also: Recent months at Mount Moornapa
Date/Time
EST
Temp
°C
App
Temp
°C
Dew
Point
Rel
Hum
%
Delta-T
°C
Wind Press
QNH
hPa
Press
MSL
hPa
Rain
since 9 am
mm
Dir
 
Spd
km/h
Gust
km/h
Spd
kts
Gust
kts
31/09:30pm 8.0 7.4 7.6 97 0.2 CALM 0 2 0 1 - - 0.0
31/09:00pm 7.9 6.5 7.3 96 0.3 ENE 4 7 2 4 - - 0.0
31/08:30pm 8.1 6.4 7.5 96 0.3 E 6 9 3 5 - - 0.0
31/08:00pm 8.3 6.6 7.4 94 0.4 ENE 6 11 3 6 - - 0.0
31/07:30pm 8.4 6.5 7.5 94 0.4 E 7 13 4 7 - - 0.0
31/07:00pm 8.5 6.6 7.7 95 0.4 E 7 15 4 8 - - 0.0
31/06:30pm 8.7 6.9 7.9 95 0.4 E 7 13 4 7 - - 0.0
31/06:00pm 8.7 6.6 8.1 96 0.3 E 9 17 5 9 - - 0.0
31/05:30pm 8.8 7.0 8.0 95 0.4 E 7 13 4 7 - - 0.0
31/05:00pm 9.0 7.3 7.5 90 0.7 ESE 6 11 3 6 - - 0.0
31/04:30pm 10.1 8.7 7.2 82 1.4 ESE 4 7 2 4 - - 0.0
31/04:00pm 11.2 10.2 7.3 77 1.9 ESE 2 9 1 5 - - 0.0
31/03:30pm 11.4 10.0 7.1 75 2.1 E 4 9 2 5 - - 0.0
31/03:00pm 11.7 9.9 7.0 73 2.3 E 6 11 3 6 - - 0.0
31/02:30pm 11.8 9.8 6.3 69 2.7 ESE 6 9 3 5 - - 0.0
31/02:00pm 11.7 10.1 6.2 69 2.7 ESE 4 9 2 5 - - 0.0
31/01:30pm 11.5 9.5 6.4 71 2.5 E 6 13 3 7 - - 0.0
31/01:00pm 11.5 9.9 6.4 71 2.5 ESE 4 9 2 5 - - 0.0
31/12:30pm 10.7 9.2 6.6 76 2.0 SE 4 6 2 3 - - 0.0
31/12:00pm 10.4 9.6 6.7 78 1.8 CALM 0 0 0 0 - - 0.0
31/11:30am 9.7 8.8 6.2 79 1.7 CALM 0 0 0 0 - - 0.0
31/11:00am 9.3 8.3 5.7 78 1.7 CALM 0 4 0 2 - - 0.0
31/10:30am 8.8 7.6 4.6 75 1.9 CALM 0 0 0 0 - - 0.0
31/10:00am 8.9 7.6 4.3 73 2.1 CALM 0 4 0 2 - - 0.0
31/09:30am 9.6 8.4 4.6 71 2.3 CALM 0 0 0 0 - - 0.0
31/09:00am 7.1 4.6 3.7 79 1.5 N 6 9 3 5 - - 0.0
31/08:30am 7.4 5.4 4.2 80 1.4 NNE 4 6 2 3 - - 0.0
31/08:00am 6.0 3.3 3.8 86 1.0 N 7 13 4 7 - - 0.0
31/07:30am 5.3 2.2 3.5 88 0.8 N 9 11 5 6 - - 0.0
31/07:00am 5.9 3.5 4.2 89 0.7 NE 6 9 3 5 - - 0.0
31/06:30am 5.1 2.6 3.8 91 0.6 N 6 7 3 4 - - 0.0
31/06:00am 6.0 4.4 4.6 91 0.6 ENE 2 6 1 3 - - 0.0
31/05:30am 6.2 3.9 5.0 92 0.5 E 6 9 3 5 - - 0.0
31/05:00am 6.6 4.2 5.2 91 0.6 E 7 9 4 5 - - 0.0
31/04:30am 6.8 4.1 5.4 91 0.6 E 9 15 5 8 - - 0.0
31/04:00am 6.6 4.2 5.2 91 0.6 E 7 11 4 6 - - 0.0
31/03:30am 6.0 3.7 4.6 91 0.6 ENE 6 9 3 5 - - 0.0
31/03:00am 6.3 4.0 4.8 90 0.7 NNE 6 7 3 4 - - 0.0
31/02:30am 7.1 5.2 5.1 87 0.9 ENE 4 7 2 4 - - 0.0
31/02:00am 6.9 4.7 5.1 88 0.8 NE 6 7 3 4 - - 0.0
31/01:30am 6.7 4.9 5.2 90 0.7 E 4 6 2 3 - - 0.0
31/01:00am 6.9 5.1 5.2 89 0.8 E 4 6 2 3 - - 0.0
31/12:30am 7.1 4.9 5.3 88 0.8 ENE 6 7 3 4 - - 0.0
31/12:00am 7.3 5.1 5.3 87 0.9 NNE 6 9 3 5 - - 0.0
 
Date/Time
EST
Temp
°C
App
Temp
°C
Dew
Point
Rel
Hum
%
Delta-T
°C
Wind Press
QNH
hPa
Press
MSL
hPa
Rain
since 9 am
mm
Dir
 
Spd
km/h
Gust
km/h
Spd
kts
Gust
kts
30/11:30pm 7.0 4.7 5.6 91 0.6 N 7 11 4 6 - - 0.0
30/11:00pm 6.7 4.5 5.5 92 0.5 N 6 9 3 5 - - 0.0
30/10:30pm 6.7 4.4 5.5 92 0.5 N 7 11 4 6 - - 0.0
30/10:00pm 6.9 4.8 5.8 93 0.5 NE 6 9 3 5 - - 0.0
30/09:30pm 6.8 4.7 5.9 94 0.4 ENE 6 11 3 6 - - 0.0
30/09:00pm 6.9 5.2 6.0 94 0.4 ENE 4 7 2 4 - - 0.0
30/08:30pm 7.0 5.0 6.3 95 0.3 E 6 9 3 5 - - 0.0
30/08:00pm 7.1 4.9 6.2 94 0.4 E 7 11 4 6 - - 0.0
30/07:30pm 7.1 4.9 6.0 93 0.5 E 7 13 4 7 - - 0.0
30/07:00pm 7.1 4.8 5.6 90 0.7 E 7 11 4 6 - - 0.0
30/06:30pm 7.0 4.8 5.3 89 0.8 ESE 6 11 3 6 - - 0.0
30/06:00pm 7.5 5.2 5.0 84 1.1 ESE 6 9 3 5 - - 0.0
30/05:30pm 7.7 5.7 4.5 80 1.4 ESE 4 6 2 3 - - 0.0
30/05:00pm 8.7 7.1 4.3 74 2.0 E 2 6 1 3 - - 0.0
30/04:30pm 9.6 7.6 4.4 70 2.4 E 4 6 2 3 - - 0.0
30/04:00pm 10.4 8.9 4.8 68 2.6 ESE 2 6 1 3 - - 0.0
30/03:30pm 11.5 9.7 5.4 66 2.9 E 4 9 2 5 - - 0.0
30/03:00pm 11.6 10.4 4.6 62 3.3 CALM 0 7 0 4 - - 0.0
30/02:30pm 11.3 9.4 5.0 65 3.0 ESE 4 11 2 6 - - 0.0
30/02:00pm 11.1 9.1 4.6 64 3.0 SE 4 6 2 3 - - 0.0
30/01:30pm 9.9 8.6 4.1 67 2.6 CALM 0 4 0 2 - - 0.0
30/01:00pm 11.4 9.3 3.9 60 3.4 ESE 4 9 2 5 - - 0.0
30/12:30pm 11.1 8.8 2.9 57 3.7 NW 4 7 2 4 - - 0.0
30/12:00pm 10.7 8.7 2.5 57 3.6 NNW 2 9 1 5 - - 0.0
30/11:30am 10.3 8.2 3.8 64 2.9 WNW 4 6 2 3 - - 0.0
30/11:00am 8.9 7.0 3.1 67 2.6 WSW 2 6 1 3 - - 0.0
30/10:30am 8.8 6.9 2.6 65 2.7 SW 2 4 1 2 - - 0.0
30/10:00am 8.8 6.9 2.6 65 2.7 N 2 6 1 3 - - 0.0
30/09:30am 7.7 5.0 2.4 69 2.3 NNW 6 9 3 5 - - 0.0
30/09:00am 6.7 3.7 2.0 72 2.0 N 7 11 4 6 - - 0.0
30/08:30am 5.8 3.0 1.9 76 1.6 NNW 6 7 3 4 - - 0.0
30/08:00am 5.3 2.4 1.6 77 1.5 NNW 6 6 3 3 - - 0.0
30/07:30am 4.9 2.0 1.7 80 1.3 NW 6 7 3 4 - - 0.0
30/07:00am 5.0 2.1 1.7 79 1.4 NW 6 7 3 4 - - 0.0
30/06:30am 5.0 2.1 1.7 79 1.4 NW 6 7 3 4 - - 0.0
30/06:00am 5.6 2.7 1.7 76 1.6 NW 6 7 3 4 - - 0.0
30/05:30am 5.3 2.5 1.8 78 1.4 WNW 6 11 3 6 - - 0.0
30/05:00am 5.5 2.7 2.0 78 1.5 WNW 6 9 3 5 - - 0.0
30/04:30am 5.6 2.8 2.1 78 1.5 WNW 6 9 3 5 - - 0.0
30/04:00am 5.7 2.7 2.2 78 1.5 W 7 13 4 7 - - 0.0
30/03:30am 5.3 2.5 2.3 81 1.3 WNW 6 11 3 6 - - 0.0
30/03:00am 5.8 2.5 2.3 78 1.5 W 9 13 5 7 - - 0.0
30/02:30am 5.8 2.5 2.4 79 1.4 W 9 15 5 8 - - 0.0
30/02:00am 5.2 2.4 2.9 85 1.0 NW 7 9 4 5 - - 0.0
30/01:30am 5.4 2.6 3.1 85 1.0 WNW 7 13 4 7 - - 0.0
30/01:00am 5.9 2.3 3.1 82 1.2 WNW 11 19 6 10 - - 0.0
30/12:30am 6.1 2.6 3.3 82 1.2 WNW 11 17 6 9 - - 0.0
30/12:00am 5.6 2.4 3.1 84 1.1 WNW 9 13 5 7 - - 0.0
 
Date/Time
EST
Temp
°C
App
Temp
°C
Dew
Point
Rel
Hum
%
Delta-T
°C
Wind Press
QNH
hPa
Press
MSL
hPa
Rain
since 9 am
mm
Dir
 
Spd
km/h
Gust
km/h
Spd
kts
Gust
kts
29/11:30pm 5.6 2.8 3.3 85 1.0 WNW 7 13 4 7 - - 0.0
29/11:00pm 5.9 2.4 3.4 84 1.1 W 11 19 6 10 - - 0.0
29/10:30pm 6.1 2.6 3.3 82 1.2 W 11 20 6 11 - - 0.0
29/10:00pm 6.5 3.4 3.5 81 1.3 W 9 20 5 11 - - 0.0
29/09:30pm 6.5 3.4 3.5 81 1.3 W 9 19 5 10 - - 0.0
29/09:00pm 6.6 3.4 3.2 79 1.5 W 9 17 5 9 - - 0.0
29/08:30pm 6.6 3.1 3.6 81 1.3 WSW 11 20 6 11 - - 0.0
29/08:00pm 6.7 3.3 3.9 82 1.2 WSW 11 24 6 13 - - 0.0
29/07:30pm 6.7 3.3 4.2 84 1.1 SW 11 20 6 11 - - 0.0
29/07:00pm 6.6 4.0 4.4 86 1.0 SW 7 19 4 10 - - 0.0
29/06:30pm 7.2 3.9 4.5 83 1.2 WSW 11 20 6 11 - - 0.0
29/06:00pm 7.3 4.4 4.4 82 1.3 SW 9 20 5 11 - - 0.0
29/05:30pm 7.6 5.2 4.4 80 1.4 SW 6 20 3 11 - - 0.0
29/05:00pm 8.4 5.9 3.8 73 2.0 SSW 6 15 3 8 - - 0.0
29/04:30pm 9.7 7.1 3.4 65 2.8 SW 6 15 3 8 - - 0.0
29/04:00pm 10.9 7.6 2.5 56 3.7 SW 9 22 5 12 - - 0.0
29/03:30pm 11.5 8.1 2.0 52 4.2 WSW 9 19 5 10 - - 0.0
29/03:00pm 11.3 7.5 1.8 52 4.1 WSW 11 26 6 14 - - 0.0
29/02:30pm 11.2 7.6 2.8 56 3.7 SW 11 28 6 15 - - 0.0
29/02:00pm 10.7 7.6 3.7 62 3.2 SW 9 28 5 15 - - 0.0
29/01:30pm 11.8 7.9 3.6 57 3.7 WSW 13 30 7 16 - - 0.0
29/01:00pm 11.8 8.3 3.6 57 3.7 WSW 11 22 6 12 - - 0.0
29/12:30pm 10.9 8.5 4.1 63 3.1 SSW 6 17 3 9 - - 0.0
29/12:00pm 10.5 8.2 5.5 71 2.4 SW 7 24 4 13 - - 0.0
29/11:30am 10.7 8.3 4.4 65 2.9 SW 6 19 3 10 - - 0.0
29/11:00am 10.3 7.5 3.3 62 3.1 WSW 7 19 4 10 - - 0.0
29/10:30am 9.8 6.6 3.3 64 2.9 WSW 9 19 5 10 - - 0.0
29/10:00am 8.9 5.8 3.5 69 2.4 WSW 9 15 5 8 - - 0.0
29/09:30am 8.6 6.0 4.0 73 2.1 WSW 7 15 4 8 - - 0.0
29/09:00am 8.1 5.4 3.9 75 1.9 WSW 7 19 4 10 - - 0.0
29/08:30am 7.7 4.6 3.4 74 1.9 WSW 9 20 5 11 - - 0.0
29/08:00am 7.6 4.4 3.3 74 1.9 W 9 17 5 9 - - 0.0
29/07:30am 7.2 4.0 3.1 75 1.8 WSW 9 17 5 9 - - 0.0
29/07:00am 7.3 4.2 3.5 77 1.7 WSW 9 19 5 10 - - 0.0
29/06:30am 7.1 3.6 3.7 79 1.5 W 11 19 6 10 - - 0.0
29/06:00am 7.3 3.4 3.5 77 1.7 WSW 13 26 7 14 - - 0.0
29/05:30am 7.1 3.3 3.7 79 1.5 W 13 28 7 15 - - 0.0
29/05:00am 7.3 3.4 3.4 76 1.7 WSW 13 22 7 12 - - 0.0
29/04:30am 7.5 3.9 3.0 73 2.0 W 11 22 6 12 - - 0.0
29/04:00am 7.4 3.4 2.9 73 1.9 W 13 20 7 11 - - 0.0
29/03:30am 7.7 4.1 3.0 72 2.0 W 11 20 6 11 - - 0.0
29/03:00am 7.4 4.2 3.1 74 1.9 W 9 15 5 8 - - 0.0
29/02:30am 7.3 4.1 3.0 74 1.9 WNW 9 17 5 9 - - 0.0
29/02:00am 7.6 3.3 3.1 73 2.0 W 15 26 8 14 - - 0.0
29/01:30am 7.4 3.9 3.3 75 1.8 WNW 11 20 6 11 - - 0.0
29/01:00am 7.5 4.0 3.4 75 1.8 W 11 19 6 10 - - 0.0
29/12:30am 6.7 2.9 3.9 82 1.2 W 13 22 7 12 - - 0.0
29/12:00am 7.5 3.4 4.1 79 1.5 W 15 28 8 15 - - 0.0
 
Date/Time
EST
Temp
°C
App
Temp
°C
Dew
Point
Rel
Hum
%
Delta-T
°C
Wind Press
QNH
hPa
Press
MSL
hPa
Rain
since 9 am
mm
Dir
 
Spd
km/h
Gust
km/h
Spd
kts
Gust
kts
28/11:30pm 7.2 3.5 4.2 81 1.3 W 13 22 7 12 - - 0.0
28/11:00pm 6.8 3.0 4.1 83 1.2 W 13 28 7 15 - - 0.0
28/10:30pm 7.2 3.2 4.7 84 1.1 W 15 26 8 14 - - 0.0
28/10:00pm 7.2 3.6 5.0 86 1.0 W 13 22 7 12 - - 0.0

Other Formats:

Comma delimited format used in spreadsheet applications
http://www.bom.gov.au/fwo/IDV60801/IDV60801.95913.axf

JavaScript Object Notation format (JSON) in row-major order
http://www.bom.gov.au/fwo/IDV60801/IDV60801.95913.json